sensor_id;sensor_type;location;lat;lon;timestamp;temperature;humidity
33841;DHT22;20142;28.494;-16.312;2023-04-03T00:00:43;18.80;62.20
33841;DHT22;20142;28.494;-16.312;2023-04-03T00:05:46;18.70;62.20
33841;DHT22;20142;28.494;-16.312;2023-04-03T00:10:48;18.60;62.40
33841;DHT22;20142;28.494;-16.312;2023-04-03T00:15:49;18.60;63.30
33841;DHT22;20142;28.494;-16.312;2023-04-03T00:20:51;18.50;63.50
33841;DHT22;20142;28.494;-16.312;2023-04-03T00:25:53;18.50;64.00
33841;DHT22;20142;28.494;-16.312;2023-04-03T00:30:56;18.40;64.20
33841;DHT22;20142;28.494;-16.312;2023-04-03T00:35:58;18.30;65.60
33841;DHT22;20142;28.494;-16.312;2023-04-03T00:40:59;18.00;66.50
33841;DHT22;20142;28.494;-16.312;2023-04-03T00:46:01;18.00;66.90
33841;DHT22;20142;28.494;-16.312;2023-04-03T00:51:04;17.90;67.40
33841;DHT22;20142;28.494;-16.312;2023-04-03T00:56:10;17.90;67.90
33841;DHT22;20142;28.494;-16.312;2023-04-03T01:01:17;18.00;67.50
33841;DHT22;20142;28.494;-16.312;2023-04-03T01:06:27;18.10;67.50
33841;DHT22;20142;28.494;-16.312;2023-04-03T01:11:33;17.90;67.80
33841;DHT22;20142;28.494;-16.312;2023-04-03T01:16:35;17.70;69.10
33841;DHT22;20142;28.494;-16.312;2023-04-03T01:27:05;17.50;69.90
33841;DHT22;20142;28.494;-16.312;2023-04-03T01:32:07;17.40;71.30
33841;DHT22;20142;28.494;-16.312;2023-04-03T01:37:09;17.30;70.30
33841;DHT22;20142;28.494;-16.312;2023-04-03T01:42:10;17.50;70.50
33841;DHT22;20142;28.494;-16.312;2023-04-03T01:47:13;17.40;70.80
33841;DHT22;20142;28.494;-16.312;2023-04-03T01:52:15;17.20;71.60
33841;DHT22;20142;28.494;-16.312;2023-04-03T01:57:16;17.30;71.40
33841;DHT22;20142;28.494;-16.312;2023-04-03T02:02:18;17.40;72.40
33841;DHT22;20142;28.494;-16.312;2023-04-03T02:07:21;17.70;72.20
33841;DHT22;20142;28.494;-16.312;2023-04-03T02:12:23;18.00;71.00
33841;DHT22;20142;28.494;-16.312;2023-04-03T02:17:27;18.10;70.80
33841;DHT22;20142;28.494;-16.312;2023-04-03T02:22:29;18.30;70.20
33841;DHT22;20142;28.494;-16.312;2023-04-03T02:27:31;18.40;69.10
33841;DHT22;20142;28.494;-16.312;2023-04-03T02:32:32;18.40;69.00
33841;DHT22;20142;28.494;-16.312;2023-04-03T02:37:34;18.30;69.10
33841;DHT22;20142;28.494;-16.312;2023-04-03T02:42:36;18.30;69.00
33841;DHT22;20142;28.494;-16.312;2023-04-03T02:47:38;18.30;68.40
33841;DHT22;20142;28.494;-16.312;2023-04-03T02:52:40;18.20;68.50
33841;DHT22;20142;28.494;-16.312;2023-04-03T02:57:41;18.10;69.30
33841;DHT22;20142;28.494;-16.312;2023-04-03T03:02:43;18.10;69.50
33841;DHT22;20142;28.494;-16.312;2023-04-03T03:07:45;18.20;69.40
33841;DHT22;20142;28.494;-16.312;2023-04-03T03:12:46;18.20;68.60
33841;DHT22;20142;28.494;-16.312;2023-04-03T03:17:48;17.80;69.40
33841;DHT22;20142;28.494;-16.312;2023-04-03T03:22:50;17.90;70.10
33841;DHT22;20142;28.494;-16.312;2023-04-03T03:27:52;17.90;70.40
33841;DHT22;20142;28.494;-16.312;2023-04-03T03:32:53;18.20;69.50
33841;DHT22;20142;28.494;-16.312;2023-04-03T03:37:55;18.00;70.10
33841;DHT22;20142;28.494;-16.312;2023-04-03T03:42:57;17.50;70.60
33841;DHT22;20142;28.494;-16.312;2023-04-03T03:47:58;17.00;71.80
33841;DHT22;20142;28.494;-16.312;2023-04-03T03:53:00;16.80;73.00
33841;DHT22;20142;28.494;-16.312;2023-04-03T03:58:02;17.00;73.40
33841;DHT22;20142;28.494;-16.312;2023-04-03T04:03:04;16.90;73.70
33841;DHT22;20142;28.494;-16.312;2023-04-03T04:08:06;16.90;74.10
33841;DHT22;20142;28.494;-16.312;2023-04-03T04:13:07;16.90;74.50
33841;DHT22;20142;28.494;-16.312;2023-04-03T04:18:09;17.10;74.70
33841;DHT22;20142;28.494;-16.312;2023-04-03T04:23:11;16.70;75.20
33841;DHT22;20142;28.494;-16.312;2023-04-03T04:28:13;16.50;76.70
33841;DHT22;20142;28.494;-16.312;2023-04-03T04:33:15;16.30;77.60
33841;DHT22;20142;28.494;-16.312;2023-04-03T04:38:17;16.10;77.00
33841;DHT22;20142;28.494;-16.312;2023-04-03T04:43:19;16.10;77.60
33841;DHT22;20142;28.494;-16.312;2023-04-03T04:48:20;16.20;77.70
33841;DHT22;20142;28.494;-16.312;2023-04-03T04:53:22;16.20;78.30
33841;DHT22;20142;28.494;-16.312;2023-04-03T04:58:24;16.20;78.90
33841;DHT22;20142;28.494;-16.312;2023-04-03T05:03:26;16.10;80.40
33841;DHT22;20142;28.494;-16.312;2023-04-03T05:08:28;16.10;81.90
33841;DHT22;20142;28.494;-16.312;2023-04-03T05:13:30;16.00;82.20
33841;DHT22;20142;28.494;-16.312;2023-04-03T05:18:32;16.10;82.00
33841;DHT22;20142;28.494;-16.312;2023-04-03T05:23:34;16.10;82.50
33841;DHT22;20142;28.494;-16.312;2023-04-03T05:28:35;16.30;82.60
33841;DHT22;20142;28.494;-16.312;2023-04-03T05:33:37;16.30;83.30
33841;DHT22;20142;28.494;-16.312;2023-04-03T05:38:39;16.20;83.40
33841;DHT22;20142;28.494;-16.312;2023-04-03T05:43:41;16.30;84.00
33841;DHT22;20142;28.494;-16.312;2023-04-03T05:48:43;16.40;83.60
33841;DHT22;20142;28.494;-16.312;2023-04-03T05:53:45;16.50;84.20
33841;DHT22;20142;28.494;-16.312;2023-04-03T05:58:48;16.40;83.90
33841;DHT22;20142;28.494;-16.312;2023-04-03T06:03:49;16.50;84.60
33841;DHT22;20142;28.494;-16.312;2023-04-03T06:08:51;16.50;84.30
33841;DHT22;20142;28.494;-16.312;2023-04-03T06:13:54;16.70;84.20
33841;DHT22;20142;28.494;-16.312;2023-04-03T06:18:56;16.60;84.20
33841;DHT22;20142;28.494;-16.312;2023-04-03T06:24:05;16.50;84.30
33841;DHT22;20142;28.494;-16.312;2023-04-03T06:29:08;16.40;84.30
33841;DHT22;20142;28.494;-16.312;2023-04-03T06:34:09;16.50;84.20
33841;DHT22;20142;28.494;-16.312;2023-04-03T06:39:17;16.40;84.30
33841;DHT22;20142;28.494;-16.312;2023-04-03T06:44:21;16.40;83.90
33841;DHT22;20142;28.494;-16.312;2023-04-03T06:49:23;16.30;84.60
33841;DHT22;20142;28.494;-16.312;2023-04-03T06:54:25;16.30;84.60
33841;DHT22;20142;28.494;-16.312;2023-04-03T06:59:26;16.50;84.70
33841;DHT22;20142;28.494;-16.312;2023-04-03T07:04:28;16.60;84.60
33841;DHT22;20142;28.494;-16.312;2023-04-03T07:09:31;16.50;84.80
33841;DHT22;20142;28.494;-16.312;2023-04-03T07:14:33;16.40;85.20
33841;DHT22;20142;28.494;-16.312;2023-04-03T07:19:34;16.50;85.20
33841;DHT22;20142;28.494;-16.312;2023-04-03T07:24:36;16.70;85.00
33841;DHT22;20142;28.494;-16.312;2023-04-03T07:29:38;16.80;84.80
33841;DHT22;20142;28.494;-16.312;2023-04-03T07:34:40;16.60;84.50
33841;DHT22;20142;28.494;-16.312;2023-04-03T07:39:44;16.60;84.60
33841;DHT22;20142;28.494;-16.312;2023-04-03T07:44:46;16.60;84.50
33841;DHT22;20142;28.494;-16.312;2023-04-03T07:49:48;16.60;84.60
33841;DHT22;20142;28.494;-16.312;2023-04-03T07:54:50;16.60;85.00
33841;DHT22;20142;28.494;-16.312;2023-04-03T07:59:51;16.70;85.20
33841;DHT22;20142;28.494;-16.312;2023-04-03T08:04:53;16.60;85.40
33841;DHT22;20142;28.494;-16.312;2023-04-03T08:09:55;16.70;85.20
33841;DHT22;20142;28.494;-16.312;2023-04-03T08:14:57;16.90;84.80
33841;DHT22;20142;28.494;-16.312;2023-04-03T08:20:01;16.80;85.20
33841;DHT22;20142;28.494;-16.312;2023-04-03T08:25:04;17.00;85.10
33841;DHT22;20142;28.494;-16.312;2023-04-03T08:30:07;16.90;84.70
33841;DHT22;20142;28.494;-16.312;2023-04-03T08:35:10;17.00;84.80
33841;DHT22;20142;28.494;-16.312;2023-04-03T08:40:16;17.10;85.20
33841;DHT22;20142;28.494;-16.312;2023-04-03T08:51:00;16.90;85.90
33841;DHT22;20142;28.494;-16.312;2023-04-03T08:56:09;17.20;85.50
33841;DHT22;20142;28.494;-16.312;2023-04-03T09:01:35;17.30;85.10
33841;DHT22;20142;28.494;-16.312;2023-04-03T09:06:39;17.40;84.80
33841;DHT22;20142;28.494;-16.312;2023-04-03T09:22:38;17.80;84.90
33841;DHT22;20142;28.494;-16.312;2023-04-03T09:27:44;18.00;84.40
33841;DHT22;20142;28.494;-16.312;2023-04-03T09:32:48;18.00;84.00
33841;DHT22;20142;28.494;-16.312;2023-04-03T09:38:19;17.90;83.50
33841;DHT22;20142;28.494;-16.312;2023-04-03T09:43:28;17.90;83.60
33841;DHT22;20142;28.494;-16.312;2023-04-03T09:48:31;18.10;83.70
33841;DHT22;20142;28.494;-16.312;2023-04-03T09:53:42;18.30;83.80
33841;DHT22;20142;28.494;-16.312;2023-04-03T09:59:28;18.60;83.00
33841;DHT22;20142;28.494;-16.312;2023-04-03T10:04:19;18.70;82.10
33841;DHT22;20142;28.494;-16.312;2023-04-03T10:09:28;18.70;82.00
33841;DHT22;20142;28.494;-16.312;2023-04-03T10:14:40;18.80;82.50
33841;DHT22;20142;28.494;-16.312;2023-04-03T10:25:36;19.30;79.90
33841;DHT22;20142;28.494;-16.312;2023-04-03T10:31:21;19.40;79.40
33841;DHT22;20142;28.494;-16.312;2023-04-03T10:36:46;19.60;80.30
33841;DHT22;20142;28.494;-16.312;2023-04-03T10:42:36;19.80;79.80
33841;DHT22;20142;28.494;-16.312;2023-04-03T10:58:45;19.90;78.70
33841;DHT22;20142;28.494;-16.312;2023-04-03T11:03:58;20.10;78.00
33841;DHT22;20142;28.494;-16.312;2023-04-03T11:09:04;20.00;78.20
33841;DHT22;20142;28.494;-16.312;2023-04-03T11:19:26;19.90;77.40
33841;DHT22;20142;28.494;-16.312;2023-04-03T11:24:39;20.10;77.70
33841;DHT22;20142;28.494;-16.312;2023-04-03T11:29:45;20.00;77.80
33841;DHT22;20142;28.494;-16.312;2023-04-03T11:34:52;20.20;77.70
33841;DHT22;20142;28.494;-16.312;2023-04-03T11:50:45;20.00;76.80
33841;DHT22;20142;28.494;-16.312;2023-04-03T12:01:00;20.30;76.50
33841;DHT22;20142;28.494;-16.312;2023-04-03T12:16:29;20.80;75.00
33841;DHT22;20142;28.494;-16.312;2023-04-03T12:49:35;20.60;76.00
33841;DHT22;20142;28.494;-16.312;2023-04-03T12:54:41;20.40;74.90
33841;DHT22;20142;28.494;-16.312;2023-04-03T12:59:45;20.40;74.90
33841;DHT22;20142;28.494;-16.312;2023-04-03T13:04:49;20.30;74.80
33841;DHT22;20142;28.494;-16.312;2023-04-03T13:09:57;20.20;74.50
33841;DHT22;20142;28.494;-16.312;2023-04-03T13:15:12;20.50;74.90
33841;DHT22;20142;28.494;-16.312;2023-04-03T13:25:28;20.50;74.20
33841;DHT22;20142;28.494;-16.312;2023-04-03T13:30:35;20.40;75.00
33841;DHT22;20142;28.494;-16.312;2023-04-03T13:35:41;20.50;75.60
33841;DHT22;20142;28.494;-16.312;2023-04-03T13:41:20;20.80;75.20
33841;DHT22;20142;28.494;-16.312;2023-04-03T13:46:27;20.80;75.60
33841;DHT22;20142;28.494;-16.312;2023-04-03T13:51:30;20.80;74.70
33841;DHT22;20142;28.494;-16.312;2023-04-03T13:56:34;20.80;74.10
33841;DHT22;20142;28.494;-16.312;2023-04-03T14:07:04;20.80;74.20
33841;DHT22;20142;28.494;-16.312;2023-04-03T14:12:24;20.70;74.10
33841;DHT22;20142;28.494;-16.312;2023-04-03T14:17:31;20.60;73.40
33841;DHT22;20142;28.494;-16.312;2023-04-03T14:22:33;20.70;74.80
33841;DHT22;20142;28.494;-16.312;2023-04-03T14:27:42;20.90;73.60
33841;DHT22;20142;28.494;-16.312;2023-04-03T14:32:45;22.00;73.20
33841;DHT22;20142;28.494;-16.312;2023-04-03T14:37:48;23.40;72.30
33841;DHT22;20142;28.494;-16.312;2023-04-03T14:42:50;25.30;65.50
33841;DHT22;20142;28.494;-16.312;2023-04-03T14:47:56;27.00;62.80
33841;DHT22;20142;28.494;-16.312;2023-04-03T14:52:59;28.50;61.20
33841;DHT22;20142;28.494;-16.312;2023-04-03T14:58:00;29.70;58.70
33841;DHT22;20142;28.494;-16.312;2023-04-03T15:03:02;30.20;54.80
33841;DHT22;20142;28.494;-16.312;2023-04-03T15:08:04;30.50;54.80
33841;DHT22;20142;28.494;-16.312;2023-04-03T15:13:08;30.50;52.00
33841;DHT22;20142;28.494;-16.312;2023-04-03T15:18:32;30.60;53.70
33841;DHT22;20142;28.494;-16.312;2023-04-03T15:23:38;31.10;52.60
33841;DHT22;20142;28.494;-16.312;2023-04-03T15:28:42;31.70;50.00
33841;DHT22;20142;28.494;-16.312;2023-04-03T15:33:44;31.90;48.00
33841;DHT22;20142;28.494;-16.312;2023-04-03T15:38:46;32.00;49.20
33841;DHT22;20142;28.494;-16.312;2023-04-03T15:43:48;32.50;48.90
33841;DHT22;20142;28.494;-16.312;2023-04-03T15:48:49;33.10;46.50
33841;DHT22;20142;28.494;-16.312;2023-04-03T15:53:51;33.20;46.50
33841;DHT22;20142;28.494;-16.312;2023-04-03T15:58:53;33.30;44.40
33841;DHT22;20142;28.494;-16.312;2023-04-03T16:03:54;32.70;45.70
33841;DHT22;20142;28.494;-16.312;2023-04-03T16:08:56;32.90;45.60
33841;DHT22;20142;28.494;-16.312;2023-04-03T16:13:59;33.20;44.30
33841;DHT22;20142;28.494;-16.312;2023-04-03T16:19:00;32.20;44.80
33841;DHT22;20142;28.494;-16.312;2023-04-03T16:24:02;33.30;43.40
33841;DHT22;20142;28.494;-16.312;2023-04-03T16:29:04;32.90;44.10
33841;DHT22;20142;28.494;-16.312;2023-04-03T16:34:06;32.40;44.00
33841;DHT22;20142;28.494;-16.312;2023-04-03T16:39:08;31.10;46.30
33841;DHT22;20142;28.494;-16.312;2023-04-03T16:44:11;32.00;45.60
33841;DHT22;20142;28.494;-16.312;2023-04-03T16:49:13;30.90;46.60
33841;DHT22;20142;28.494;-16.312;2023-04-03T16:54:14;29.90;47.20
33841;DHT22;20142;28.494;-16.312;2023-04-03T16:59:16;27.70;49.50
33841;DHT22;20142;28.494;-16.312;2023-04-03T17:04:18;28.70;50.00
33841;DHT22;20142;28.494;-16.312;2023-04-03T17:09:20;28.70;50.20
33841;DHT22;20142;28.494;-16.312;2023-04-03T17:14:22;26.30;51.70
33841;DHT22;20142;28.494;-16.312;2023-04-03T17:19:23;27.00;52.20
33841;DHT22;20142;28.494;-16.312;2023-04-03T17:24:26;26.40;52.80
33841;DHT22;20142;28.494;-16.312;2023-04-03T17:29:28;25.90;54.90
33841;DHT22;20142;28.494;-16.312;2023-04-03T17:34:29;24.90;54.80
33841;DHT22;20142;28.494;-16.312;2023-04-03T17:39:31;24.20;58.00
33841;DHT22;20142;28.494;-16.312;2023-04-03T17:44:33;24.60;57.30
33841;DHT22;20142;28.494;-16.312;2023-04-03T17:49:34;24.50;58.00
33841;DHT22;20142;28.494;-16.312;2023-04-03T17:54:36;23.60;60.80
33841;DHT22;20142;28.494;-16.312;2023-04-03T17:59:38;22.20;62.70
33841;DHT22;20142;28.494;-16.312;2023-04-03T18:04:39;23.10;62.40
33841;DHT22;20142;28.494;-16.312;2023-04-03T18:09:41;23.20;61.80
33841;DHT22;20142;28.494;-16.312;2023-04-03T18:14:44;22.60;63.20
33841;DHT22;20142;28.494;-16.312;2023-04-03T18:19:46;22.10;65.10
33841;DHT22;20142;28.494;-16.312;2023-04-03T18:24:50;22.10;65.20
33841;DHT22;20142;28.494;-16.312;2023-04-03T18:29:57;21.10;67.10
33841;DHT22;20142;28.494;-16.312;2023-04-03T18:35:01;20.30;68.80
33841;DHT22;20142;28.494;-16.312;2023-04-03T18:40:03;19.80;70.30
33841;DHT22;20142;28.494;-16.312;2023-04-03T18:45:08;19.70;71.10
33841;DHT22;20142;28.494;-16.312;2023-04-03T18:50:12;19.20;73.30
